sensor_id;sensor_type;location;lat;lon;timestamp;P1;durP1;ratioP1;P2;durP2;ratioP2
57828;SDS011;43657;52.698;6.314;2023-07-09T00:02:20;14.70;;;13.18;;
57828;SDS011;43657;52.698;6.314;2023-07-09T00:04:51;14.88;;;13.68;;
57828;SDS011;43657;52.698;6.314;2023-07-09T00:09:58;15.77;;;14.38;;
57828;SDS011;43657;52.698;6.314;2023-07-09T00:12:25;15.45;;;13.85;;
57828;SDS011;43657;52.698;6.314;2023-07-09T00:14:52;14.85;;;13.45;;
57828;SDS011;43657;52.698;6.314;2023-07-09T00:17:23;15.23;;;13.73;;
57828;SDS011;43657;52.698;6.314;2023-07-09T00:19:59;14.52;;;13.23;;
57828;SDS011;43657;52.698;6.314;2023-07-09T00:22:28;15.68;;;13.98;;
57828;SDS011;43657;52.698;6.314;2023-07-09T00:24:58;15.13;;;13.73;;
57828;SDS011;43657;52.698;6.314;2023-07-09T00:27:27;14.82;;;13.50;;
57828;SDS011;43657;52.698;6.314;2023-07-09T00:29:56;15.02;;;13.73;;
57828;SDS011;43657;52.698;6.314;2023-07-09T00:32:21;14.82;;;13.52;;
57828;SDS011;43657;52.698;6.314;2023-07-09T00:34:51;15.63;;;14.18;;
57828;SDS011;43657;52.698;6.314;2023-07-09T00:37:20;15.07;;;13.55;;
57828;SDS011;43657;52.698;6.314;2023-07-09T00:39:58;14.70;;;13.38;;
57828;SDS011;43657;52.698;6.314;2023-07-09T00:42:27;15.43;;;13.93;;
57828;SDS011;43657;52.698;6.314;2023-07-09T00:44:56;14.95;;;13.55;;
57828;SDS011;43657;52.698;6.314;2023-07-09T00:50:41;15.65;;;14.32;;
57828;SDS011;43657;52.698;6.314;2023-07-09T00:53:36;16.15;;;14.73;;
57828;SDS011;43657;52.698;6.314;2023-07-09T00:56:14;15.25;;;13.85;;
57828;SDS011;43657;52.698;6.314;2023-07-09T00:58:47;15.85;;;14.43;;
57828;SDS011;43657;52.698;6.314;2023-07-09T01:01:22;16.27;;;14.88;;
57828;SDS011;43657;52.698;6.314;2023-07-09T01:03:54;14.18;;;12.88;;
57828;SDS011;43657;52.698;6.314;2023-07-09T01:06:31;14.57;;;13.27;;
57828;SDS011;43657;52.698;6.314;2023-07-09T01:14:09;15.27;;;13.88;;
57828;SDS011;43657;52.698;6.314;2023-07-09T01:16:39;16.60;;;15.15;;
57828;SDS011;43657;52.698;6.314;2023-07-09T01:19:36;16.58;;;15.07;;
57828;SDS011;43657;52.698;6.314;2023-07-09T01:22:24;15.75;;;14.38;;
57828;SDS011;43657;52.698;6.314;2023-07-09T01:25:05;16.60;;;15.10;;
57828;SDS011;43657;52.698;6.314;2023-07-09T01:27:50;16.60;;;15.10;;
57828;SDS011;43657;52.698;6.314;2023-07-09T01:30:19;16.50;;;15.00;;
57828;SDS011;43657;52.698;6.314;2023-07-09T01:33:09;17.50;;;15.48;;
57828;SDS011;43657;52.698;6.314;2023-07-09T01:35:43;16.42;;;14.82;;
57828;SDS011;43657;52.698;6.314;2023-07-09T01:38:12;18.00;;;16.40;;
57828;SDS011;43657;52.698;6.314;2023-07-09T01:40:51;16.65;;;15.02;;
57828;SDS011;43657;52.698;6.314;2023-07-09T01:43:17;17.17;;;15.65;;
57828;SDS011;43657;52.698;6.314;2023-07-09T01:45:57;16.80;;;15.40;;
57828;SDS011;43657;52.698;6.314;2023-07-09T01:48:26;16.60;;;15.02;;
57828;SDS011;43657;52.698;6.314;2023-07-09T01:51:11;16.37;;;14.87;;
57828;SDS011;43657;52.698;6.314;2023-07-09T01:53:51;16.83;;;15.43;;
57828;SDS011;43657;52.698;6.314;2023-07-09T01:56:21;15.75;;;14.43;;
57828;SDS011;43657;52.698;6.314;2023-07-09T01:59:17;17.67;;;15.98;;
57828;SDS011;43657;52.698;6.314;2023-07-09T02:01:49;16.83;;;15.23;;
57828;SDS011;43657;52.698;6.314;2023-07-09T02:05:04;16.65;;;15.05;;
57828;SDS011;43657;52.698;6.314;2023-07-09T02:07:47;16.83;;;15.23;;
57828;SDS011;43657;52.698;6.314;2023-07-09T02:10:24;17.10;;;15.60;;
57828;SDS011;43657;52.698;6.314;2023-07-09T02:13:02;16.77;;;15.27;;
57828;SDS011;43657;52.698;6.314;2023-07-09T02:18:53;16.52;;;15.05;;
57828;SDS011;43657;52.698;6.314;2023-07-09T02:21:39;17.35;;;15.85;;
57828;SDS011;43657;52.698;6.314;2023-07-09T02:24:08;17.30;;;15.68;;
57828;SDS011;43657;52.698;6.314;2023-07-09T02:26:42;17.40;;;15.85;;
57828;SDS011;43657;52.698;6.314;2023-07-09T02:29:29;17.70;;;16.02;;
57828;SDS011;43657;52.698;6.314;2023-07-09T02:32:09;17.70;;;16.02;;
57828;SDS011;43657;52.698;6.314;2023-07-09T02:34:47;18.55;;;16.65;;
57828;SDS011;43657;52.698;6.314;2023-07-09T02:37:23;17.67;;;15.95;;
57828;SDS011;43657;52.698;6.314;2023-07-09T02:40:12;17.55;;;15.90;;
57828;SDS011;43657;52.698;6.314;2023-07-09T02:42:42;18.35;;;16.67;;
57828;SDS011;43657;52.698;6.314;2023-07-09T02:45:14;18.30;;;16.63;;
57828;SDS011;43657;52.698;6.314;2023-07-09T02:48:07;18.17;;;16.58;;
57828;SDS011;43657;52.698;6.314;2023-07-09T02:51:00;16.90;;;15.45;;
57828;SDS011;43657;52.698;6.314;2023-07-09T02:53:40;17.13;;;15.63;;
57828;SDS011;43657;52.698;6.314;2023-07-09T02:56:41;18.73;;;17.10;;
57828;SDS011;43657;52.698;6.314;2023-07-09T02:59:12;17.92;;;16.23;;
57828;SDS011;43657;52.698;6.314;2023-07-09T03:01:53;17.35;;;15.73;;
57828;SDS011;43657;52.698;6.314;2023-07-09T03:04:37;17.20;;;15.70;;
57828;SDS011;43657;52.698;6.314;2023-07-09T03:07:29;16.98;;;15.38;;
57828;SDS011;43657;52.698;6.314;2023-07-09T03:10:07;18.23;;;16.63;;
57828;SDS011;43657;52.698;6.314;2023-07-09T03:12:36;17.77;;;16.23;;
57828;SDS011;43657;52.698;6.314;2023-07-09T03:15:22;21.88;;;19.83;;
57828;SDS011;43657;52.698;6.314;2023-07-09T03:17:53;19.70;;;17.92;;
57828;SDS011;43657;52.698;6.314;2023-07-09T03:20:19;20.40;;;18.50;;
57828;SDS011;43657;52.698;6.314;2023-07-09T03:22:53;22.50;;;20.23;;
57828;SDS011;43657;52.698;6.314;2023-07-09T03:25:31;20.10;;;18.48;;
57828;SDS011;43657;52.698;6.314;2023-07-09T03:28:23;20.35;;;18.35;;
57828;SDS011;43657;52.698;6.314;2023-07-09T03:33:53;20.83;;;19.10;;
57828;SDS011;43657;52.698;6.314;2023-07-09T03:36:31;22.50;;;20.48;;
57828;SDS011;43657;52.698;6.314;2023-07-09T03:39:18;21.67;;;19.67;;
57828;SDS011;43657;52.698;6.314;2023-07-09T03:42:00;22.13;;;20.02;;
57828;SDS011;43657;52.698;6.314;2023-07-09T03:44:26;21.40;;;19.40;;
57828;SDS011;43657;52.698;6.314;2023-07-09T03:47:13;21.50;;;19.45;;
57828;SDS011;43657;52.698;6.314;2023-07-09T03:50:07;20.30;;;18.50;;
57828;SDS011;43657;52.698;6.314;2023-07-09T03:52:53;21.05;;;19.25;;
57828;SDS011;43657;52.698;6.314;2023-07-09T03:55:36;20.67;;;19.02;;
57828;SDS011;43657;52.698;6.314;2023-07-09T04:01:06;21.00;;;19.02;;
57828;SDS011;43657;52.698;6.314;2023-07-09T04:03:34;19.17;;;17.42;;
57828;SDS011;43657;52.698;6.314;2023-07-09T04:06:17;20.52;;;18.83;;
57828;SDS011;43657;52.698;6.314;2023-07-09T04:08:45;19.73;;;18.13;;
57828;SDS011;43657;52.698;6.314;2023-07-09T04:11:16;20.30;;;18.45;;
57828;SDS011;43657;52.698;6.314;2023-07-09T04:13:50;20.58;;;18.88;;
57828;SDS011;43657;52.698;6.314;2023-07-09T04:16:31;19.77;;;18.02;;
57828;SDS011;43657;52.698;6.314;2023-07-09T04:19:28;20.48;;;18.77;;
57828;SDS011;43657;52.698;6.314;2023-07-09T04:22:20;19.15;;;17.45;;
57828;SDS011;43657;52.698;6.314;2023-07-09T04:24:58;18.15;;;16.52;;
57828;SDS011;43657;52.698;6.314;2023-07-09T04:27:37;18.88;;;17.25;;
57828;SDS011;43657;52.698;6.314;2023-07-09T04:30:24;18.63;;;17.02;;
57828;SDS011;43657;52.698;6.314;2023-07-09T04:32:55;19.35;;;17.55;;
57828;SDS011;43657;52.698;6.314;2023-07-09T04:35:34;18.75;;;16.92;;
57828;SDS011;43657;52.698;6.314;2023-07-09T04:38:03;18.40;;;16.80;;
57828;SDS011;43657;52.698;6.314;2023-07-09T04:40:40;19.10;;;17.40;;
57828;SDS011;43657;52.698;6.314;2023-07-09T04:43:09;19.20;;;17.65;;
57828;SDS011;43657;52.698;6.314;2023-07-09T04:45:47;18.58;;;16.98;;
57828;SDS011;43657;52.698;6.314;2023-07-09T04:48:23;19.75;;;17.95;;
57828;SDS011;43657;52.698;6.314;2023-07-09T04:51:03;17.50;;;15.80;;
57828;SDS011;43657;52.698;6.314;2023-07-09T04:53:32;17.10;;;15.38;;
57828;SDS011;43657;52.698;6.314;2023-07-09T04:56:14;16.25;;;14.68;;
57828;SDS011;43657;52.698;6.314;2023-07-09T04:58:42;16.80;;;15.20;;
57828;SDS011;43657;52.698;6.314;2023-07-09T05:01:17;15.88;;;14.57;;
57828;SDS011;43657;52.698;6.314;2023-07-09T05:04:06;16.33;;;14.82;;
57828;SDS011;43657;52.698;6.314;2023-07-09T05:06:44;17.90;;;15.35;;
57828;SDS011;43657;52.698;6.314;2023-07-09T05:09:15;16.65;;;15.15;;
57828;SDS011;43657;52.698;6.314;2023-07-09T05:11:41;17.10;;;15.60;;
57828;SDS011;43657;52.698;6.314;2023-07-09T05:14:12;16.65;;;15.07;;
57828;SDS011;43657;52.698;6.314;2023-07-09T05:19:35;17.05;;;15.52;;
57828;SDS011;43657;52.698;6.314;2023-07-09T05:22:15;17.98;;;16.27;;
57828;SDS011;43657;52.698;6.314;2023-07-09T05:24:55;17.45;;;15.65;;
57828;SDS011;43657;52.698;6.314;2023-07-09T05:27:29;18.02;;;16.38;;
57828;SDS011;43657;52.698;6.314;2023-07-09T05:29:57;17.85;;;16.15;;
57828;SDS011;43657;52.698;6.314;2023-07-09T05:32:41;18.80;;;16.92;;
57828;SDS011;43657;52.698;6.314;2023-07-09T05:35:32;17.90;;;16.20;;
57828;SDS011;43657;52.698;6.314;2023-07-09T05:38:06;17.35;;;15.85;;
57828;SDS011;43657;52.698;6.314;2023-07-09T05:40:44;17.98;;;16.38;;
57828;SDS011;43657;52.698;6.314;2023-07-09T05:43:18;17.42;;;15.85;;
57828;SDS011;43657;52.698;6.314;2023-07-09T05:45:44;17.58;;;15.98;;
57828;SDS011;43657;52.698;6.314;2023-07-09T05:48:38;18.80;;;17.00;;
57828;SDS011;43657;52.698;6.314;2023-07-09T05:51:20;18.70;;;16.90;;
57828;SDS011;43657;52.698;6.314;2023-07-09T05:53:59;20.55;;;18.55;;
57828;SDS011;43657;52.698;6.314;2023-07-09T05:56:52;22.15;;;19.13;;
57828;SDS011;43657;52.698;6.314;2023-07-09T05:59:57;20.92;;;18.95;;
57828;SDS011;43657;52.698;6.314;2023-07-09T06:02:46;20.50;;;18.75;;
57828;SDS011;43657;52.698;6.314;2023-07-09T06:05:22;19.92;;;18.20;;
57828;SDS011;43657;52.698;6.314;2023-07-09T06:08:05;20.00;;;18.20;;
57828;SDS011;43657;52.698;6.314;2023-07-09T06:10:49;19.88;;;18.17;;
57828;SDS011;43657;52.698;6.314;2023-07-09T06:13:21;20.20;;;18.13;;
57828;SDS011;43657;52.698;6.314;2023-07-09T06:15:50;19.60;;;17.85;;
57828;SDS011;43657;52.698;6.314;2023-07-09T06:18:25;19.85;;;17.75;;
57828;SDS011;43657;52.698;6.314;2023-07-09T06:21:07;19.67;;;17.63;;
57828;SDS011;43657;52.698;6.314;2023-07-09T06:23:45;18.80;;;17.30;;
57828;SDS011;43657;52.698;6.314;2023-07-09T06:26:22;19.35;;;17.55;;
57828;SDS011;43657;52.698;6.314;2023-07-09T06:29:00;19.17;;;17.40;;
57828;SDS011;43657;52.698;6.314;2023-07-09T06:31:34;18.33;;;16.70;;
57828;SDS011;43657;52.698;6.314;2023-07-09T06:34:11;19.63;;;17.73;;
57828;SDS011;43657;52.698;6.314;2023-07-09T06:36:39;19.42;;;17.50;;
57828;SDS011;43657;52.698;6.314;2023-07-09T06:40:15;19.10;;;17.27;;
57828;SDS011;43657;52.698;6.314;2023-07-09T06:49:53;20.48;;;18.77;;
57828;SDS011;43657;52.698;6.314;2023-07-09T06:53:41;19.95;;;18.08;;
57828;SDS011;43657;52.698;6.314;2023-07-09T06:56:27;19.58;;;17.70;;
57828;SDS011;43657;52.698;6.314;2023-07-09T07:00:09;19.15;;;17.48;;
57828;SDS011;43657;52.698;6.314;2023-07-09T07:06:54;18.90;;;17.20;;
57828;SDS011;43657;52.698;6.314;2023-07-09T07:10:14;18.95;;;17.10;;
57828;SDS011;43657;52.698;6.314;2023-07-09T07:13:23;19.17;;;17.48;;
57828;SDS011;43657;52.698;6.314;2023-07-09T07:17:11;19.33;;;17.52;;
57828;SDS011;43657;52.698;6.314;2023-07-09T07:24:07;19.85;;;17.92;;
57828;SDS011;43657;52.698;6.314;2023-07-09T07:26:58;19.30;;;17.40;;
57828;SDS011;43657;52.698;6.314;2023-07-09T07:36:28;19.10;;;17.25;;
57828;SDS011;43657;52.698;6.314;2023-07-09T07:38:59;18.67;;;16.88;;
57828;SDS011;43657;52.698;6.314;2023-07-09T07:44:48;17.35;;;15.60;;
57828;SDS011;43657;52.698;6.314;2023-07-09T07:47:14;18.42;;;16.63;;
57828;SDS011;43657;52.698;6.314;2023-07-09T07:49:40;17.52;;;15.70;;
57828;SDS011;43657;52.698;6.314;2023-07-09T07:52:06;17.35;;;15.85;;
57828;SDS011;43657;52.698;6.314;2023-07-09T07:54:32;17.27;;;15.57;;
57828;SDS011;43657;52.698;6.314;2023-07-09T07:56:58;16.15;;;14.43;;
57828;SDS011;43657;52.698;6.314;2023-07-09T07:59:24;16.40;;;15.00;;
57828;SDS011;43657;52.698;6.314;2023-07-09T08:01:49;15.57;;;14.15;;
57828;SDS011;43657;52.698;6.314;2023-07-09T08:04:15;15.18;;;13.65;;
57828;SDS011;43657;52.698;6.314;2023-07-09T08:06:41;13.95;;;12.57;;
57828;SDS011;43657;52.698;6.314;2023-07-09T08:09:06;14.27;;;12.88;;
57828;SDS011;43657;52.698;6.314;2023-07-09T08:11:32;12.93;;;11.60;;
57828;SDS011;43657;52.698;6.314;2023-07-09T08:13:58;15.07;;;12.93;;
57828;SDS011;43657;52.698;6.314;2023-07-09T08:16:24;13.70;;;12.23;;
57828;SDS011;43657;52.698;6.314;2023-07-09T08:18:50;12.85;;;11.70;;
57828;SDS011;43657;52.698;6.314;2023-07-09T08:21:17;11.65;;;10.52;;
57828;SDS011;43657;52.698;6.314;2023-07-09T08:23:43;11.43;;;9.57;;
57828;SDS011;43657;52.698;6.314;2023-07-09T08:26:09;10.77;;;9.63;;
57828;SDS011;43657;52.698;6.314;2023-07-09T08:28:35;11.00;;;9.23;;
57828;SDS011;43657;52.698;6.314;2023-07-09T08:31:00;11.60;;;10.50;;
57828;SDS011;43657;52.698;6.314;2023-07-09T08:33:26;14.52;;;13.23;;
57828;SDS011;43657;52.698;6.314;2023-07-09T08:35:52;17.23;;;15.73;;
57828;SDS011;43657;52.698;6.314;2023-07-09T08:38:19;14.95;;;13.35;;
57828;SDS011;43657;52.698;6.314;2023-07-09T08:40:50;11.52;;;10.38;;
57828;SDS011;43657;52.698;6.314;2023-07-09T08:48:45;10.57;;;8.90;;
57828;SDS011;43657;52.698;6.314;2023-07-09T08:51:15;10.35;;;9.30;;
57828;SDS011;43657;52.698;6.314;2023-07-09T08:53:47;9.63;;;8.63;;
57828;SDS011;43657;52.698;6.314;2023-07-09T08:56:22;10.45;;;9.05;;
57828;SDS011;43657;52.698;6.314;2023-07-09T08:58:49;10.43;;;8.20;;
57828;SDS011;43657;52.698;6.314;2023-07-09T09:01:24;12.57;;;9.23;;
57828;SDS011;43657;52.698;6.314;2023-07-09T09:03:56;9.68;;;8.52;;
57828;SDS011;43657;52.698;6.314;2023-07-09T09:06:27;8.60;;;7.80;;
57828;SDS011;43657;52.698;6.314;2023-07-09T09:11:44;8.95;;;8.00;;
57828;SDS011;43657;52.698;6.314;2023-07-09T09:17:04;8.57;;;7.72;;
57828;SDS011;43657;52.698;6.314;2023-07-09T09:19:39;7.90;;;7.07;;
57828;SDS011;43657;52.698;6.314;2023-07-09T09:22:23;7.80;;;7.00;;
57828;SDS011;43657;52.698;6.314;2023-07-09T09:24:58;7.68;;;6.88;;
57828;SDS011;43657;52.698;6.314;2023-07-09T09:30:11;9.27;;;7.43;;
57828;SDS011;43657;52.698;6.314;2023-07-09T09:32:43;8.35;;;7.47;;
57828;SDS011;43657;52.698;6.314;2023-07-09T09:35:16;9.65;;;7.22;;
57828;SDS011;43657;52.698;6.314;2023-07-09T09:37:49;8.10;;;7.07;;
57828;SDS011;43657;52.698;6.314;2023-07-09T09:42:42;8.93;;;7.50;;
57828;SDS011;43657;52.698;6.314;2023-07-09T09:45:11;10.85;;;7.57;;
57828;SDS011;43657;52.698;6.314;2023-07-09T09:47:41;9.20;;;7.60;;
57828;SDS011;43657;52.698;6.314;2023-07-09T09:50:09;8.82;;;6.47;;
57828;SDS011;43657;52.698;6.314;2023-07-09T09:52:39;9.87;;;7.13;;
57828;SDS011;43657;52.698;6.314;2023-07-09T09:55:10;7.97;;;6.95;;
57828;SDS011;43657;52.698;6.314;2023-07-09T09:57:37;7.95;;;7.22;;
57828;SDS011;43657;52.698;6.314;2023-07-09T10:00:03;8.32;;;7.35;;
57828;SDS011;43657;52.698;6.314;2023-07-09T10:02:37;8.82;;;7.45;;
57828;SDS011;43657;52.698;6.314;2023-07-09T10:05:10;8.05;;;7.25;;
57828;SDS011;43657;52.698;6.314;2023-07-09T10:10:21;8.80;;;7.10;;
57828;SDS011;43657;52.698;6.314;2023-07-09T10:12:54;9.75;;;7.00;;
57828;SDS011;43657;52.698;6.314;2023-07-09T10:15:43;8.57;;;7.53;;
57828;SDS011;43657;52.698;6.314;2023-07-09T10:21:10;9.35;;;7.43;;
57828;SDS011;43657;52.698;6.314;2023-07-09T10:24:16;8.95;;;6.97;;
57828;SDS011;43657;52.698;6.314;2023-07-09T10:26:51;9.13;;;7.05;;
57828;SDS011;43657;52.698;6.314;2023-07-09T10:34:41;9.73;;;6.53;;
57828;SDS011;43657;52.698;6.314;2023-07-09T10:40:20;7.72;;;6.68;;
57828;SDS011;43657;52.698;6.314;2023-07-09T10:43:04;7.68;;;6.45;;
57828;SDS011;43657;52.698;6.314;2023-07-09T10:45:39;8.88;;;6.78;;
57828;SDS011;43657;52.698;6.314;2023-07-09T10:48:12;21.30;;;7.00;;
57828;SDS011;43657;52.698;6.314;2023-07-09T10:50:49;8.40;;;6.15;;
57828;SDS011;43657;52.698;6.314;2023-07-09T10:56:11;8.48;;;5.88;;
57828;SDS011;43657;52.698;6.314;2023-07-09T10:59:41;6.25;;;5.65;;
57828;SDS011;43657;52.698;6.314;2023-07-09T11:05:01;8.10;;;6.65;;
57828;SDS011;43657;52.698;6.314;2023-07-09T11:07:33;8.98;;;6.05;;
57828;SDS011;43657;52.698;6.314;2023-07-09T11:10:29;8.50;;;6.30;;
57828;SDS011;43657;52.698;6.314;2023-07-09T11:13:12;6.95;;;6.10;;
57828;SDS011;43657;52.698;6.314;2023-07-09T11:15:42;6.88;;;6.18;;
57828;SDS011;43657;52.698;6.314;2023-07-09T11:18:12;9.52;;;6.13;;
57828;SDS011;43657;52.698;6.314;2023-07-09T11:20:45;7.97;;;6.50;;
57828;SDS011;43657;52.698;6.314;2023-07-09T11:23:21;6.88;;;6.05;;
57828;SDS011;43657;52.698;6.314;2023-07-09T11:26:00;8.43;;;6.68;;
57828;SDS011;43657;52.698;6.314;2023-07-09T11:28:33;7.53;;;5.75;;
57828;SDS011;43657;52.698;6.314;2023-07-09T11:31:05;9.05;;;6.47;;
57828;SDS011;43657;52.698;6.314;2023-07-09T11:33:49;10.17;;;6.63;;
57828;SDS011;43657;52.698;6.314;2023-07-09T11:36:28;8.20;;;6.95;;
57828;SDS011;43657;52.698;6.314;2023-07-09T11:38:55;8.82;;;6.28;;
57828;SDS011;43657;52.698;6.314;2023-07-09T11:44:21;8.07;;;6.45;;
57828;SDS011;43657;52.698;6.314;2023-07-09T11:49:58;8.18;;;5.97;;
57828;SDS011;43657;52.698;6.314;2023-07-09T11:52:44;10.20;;;6.07;;
57828;SDS011;43657;52.698;6.314;2023-07-09T11:58:03;6.80;;;6.10;;
57828;SDS011;43657;52.698;6.314;2023-07-09T12:00:39;7.72;;;6.43;;
57828;SDS011;43657;52.698;6.314;2023-07-09T12:03:09;7.47;;;6.70;;
57828;SDS011;43657;52.698;6.314;2023-07-09T12:05:39;8.55;;;6.50;;
57828;SDS011;43657;52.698;6.314;2023-07-09T12:08:12;7.68;;;6.45;;
57828;SDS011;43657;52.698;6.314;2023-07-09T12:10:40;7.05;;;5.75;;
57828;SDS011;43657;52.698;6.314;2023-07-09T12:13:08;6.93;;;5.80;;
57828;SDS011;43657;52.698;6.314;2023-07-09T12:15:38;8.15;;;6.32;;
57828;SDS011;43657;52.698;6.314;2023-07-09T12:18:14;6.80;;;6.15;;
57828;SDS011;43657;52.698;6.314;2023-07-09T12:20:41;6.57;;;5.80;;
57828;SDS011;43657;52.698;6.314;2023-07-09T12:23:22;9.52;;;6.63;;
57828;SDS011;43657;52.698;6.314;2023-07-09T12:25:52;8.18;;;5.85;;
57828;SDS011;43657;52.698;6.314;2023-07-09T12:28:19;7.78;;;6.10;;
57828;SDS011;43657;52.698;6.314;2023-07-09T12:30:47;7.05;;;5.80;;
57828;SDS011;43657;52.698;6.314;2023-07-09T12:33:16;7.78;;;5.25;;
57828;SDS011;43657;52.698;6.314;2023-07-09T12:35:43;7.90;;;5.88;;
57828;SDS011;43657;52.698;6.314;2023-07-09T12:38:15;6.78;;;5.25;;
57828;SDS011;43657;52.698;6.314;2023-07-09T12:40:45;7.10;;;5.43;;
57828;SDS011;43657;52.698;6.314;2023-07-09T12:43:13;7.95;;;5.65;;
57828;SDS011;43657;52.698;6.314;2023-07-09T12:45:38;6.90;;;5.65;;
57828;SDS011;43657;52.698;6.314;2023-07-09T12:48:04;8.25;;;5.38;;
57828;SDS011;43657;52.698;6.314;2023-07-09T12:50:31;6.93;;;5.75;;
57828;SDS011;43657;52.698;6.314;2023-07-09T12:53:03;6.13;;;5.53;;
57828;SDS011;43657;52.698;6.314;2023-07-09T12:55:38;6.95;;;5.45;;
57828;SDS011;43657;52.698;6.314;2023-07-09T12:58:07;7.28;;;5.90;;
57828;SDS011;43657;52.698;6.314;2023-07-09T13:00:36;9.32;;;5.97;;
57828;SDS011;43657;52.698;6.314;2023-07-09T13:03:02;8.18;;;5.57;;
57828;SDS011;43657;52.698;6.314;2023-07-09T13:05:28;9.60;;;5.65;;
57828;SDS011;43657;52.698;6.314;2023-07-09T13:08:02;6.97;;;5.38;;
57828;SDS011;43657;52.698;6.314;2023-07-09T13:10:29;7.28;;;5.60;;
57828;SDS011;43657;52.698;6.314;2023-07-09T13:13:05;6.50;;;5.15;;
57828;SDS011;43657;52.698;6.314;2023-07-09T13:15:39;8.48;;;5.55;;
57828;SDS011;43657;52.698;6.314;2023-07-09T13:18:08;8.40;;;6.38;;
57828;SDS011;43657;52.698;6.314;2023-07-09T13:20:38;6.68;;;6.00;;
57828;SDS011;43657;52.698;6.314;2023-07-09T13:25:38;9.02;;;6.00;;
57828;SDS011;43657;52.698;6.314;2023-07-09T13:28:04;7.22;;;5.80;;
57828;SDS011;43657;52.698;6.314;2023-07-09T13:30:30;8.50;;;6.30;;
57828;SDS011;43657;52.698;6.314;2023-07-09T13:32:56;7.82;;;6.32;;
57828;SDS011;43657;52.698;6.314;2023-07-09T13:35:22;8.48;;;6.40;;
57828;SDS011;43657;52.698;6.314;2023-07-09T13:37:48;7.22;;;6.45;;
57828;SDS011;43657;52.698;6.314;2023-07-09T13:40:16;7.70;;;6.43;;
57828;SDS011;43657;52.698;6.314;2023-07-09T13:42:43;9.60;;;6.30;;
57828;SDS011;43657;52.698;6.314;2023-07-09T14:19:58;10.15;;;7.55;;
57828;SDS011;43657;52.698;6.314;2023-07-09T14:42:17;13.60;;;6.63;;
57828;SDS011;43657;52.698;6.314;2023-07-09T14:48:33;9.90;;;7.22;;
57828;SDS011;43657;52.698;6.314;2023-07-09T14:51:21;9.75;;;7.13;;
57828;SDS011;43657;52.698;6.314;2023-07-09T14:57:50;10.30;;;8.00;;
57828;SDS011;43657;52.698;6.314;2023-07-09T15:00:46;11.45;;;7.82;;
57828;SDS011;43657;52.698;6.314;2023-07-09T15:03:15;11.70;;;8.45;;
57828;SDS011;43657;52.698;6.314;2023-07-09T15:05:44;11.87;;;8.57;;
57828;SDS011;43657;52.698;6.314;2023-07-09T15:08:11;10.65;;;8.65;;
57828;SDS011;43657;52.698;6.314;2023-07-09T15:10:39;10.95;;;8.48;;
57828;SDS011;43657;52.698;6.314;2023-07-09T15:13:05;9.20;;;8.27;;
57828;SDS011;43657;52.698;6.314;2023-07-09T15:15:33;9.93;;;8.13;;
57828;SDS011;43657;52.698;6.314;2023-07-09T15:18:00;10.73;;;8.18;;
57828;SDS011;43657;52.698;6.314;2023-07-09T15:20:33;10.98;;;8.40;;
57828;SDS011;43657;52.698;6.314;2023-07-09T15:22:59;10.13;;;8.43;;
57828;SDS011;43657;52.698;6.314;2023-07-09T15:25:25;10.27;;;7.85;;
57828;SDS011;43657;52.698;6.314;2023-07-09T15:27:52;8.68;;;7.55;;
57828;SDS011;43657;52.698;6.314;2023-07-09T15:30:22;8.48;;;7.40;;
57828;SDS011;43657;52.698;6.314;2023-07-09T15:32:50;9.73;;;7.15;;
57828;SDS011;43657;52.698;6.314;2023-07-09T15:35:17;7.82;;;6.50;;
57828;SDS011;43657;52.698;6.314;2023-07-09T15:37:44;7.97;;;6.78;;
57828;SDS011;43657;52.698;6.314;2023-07-09T15:42:45;9.07;;;7.38;;
57828;SDS011;43657;52.698;6.314;2023-07-09T15:45:15;9.25;;;6.85;;
57828;SDS011;43657;52.698;6.314;2023-07-09T15:47:41;8.07;;;7.28;;
57828;SDS011;43657;52.698;6.314;2023-07-09T15:50:17;10.00;;;7.13;;
57828;SDS011;43657;52.698;6.314;2023-07-09T15:52:46;10.57;;;7.38;;
57828;SDS011;43657;52.698;6.314;2023-07-09T15:55:17;8.38;;;7.57;;
57828;SDS011;43657;52.698;6.314;2023-07-09T16:02:42;8.23;;;7.30;;
57828;SDS011;43657;52.698;6.314;2023-07-09T16:05:27;7.97;;;6.82;;
57828;SDS011;43657;52.698;6.314;2023-07-09T16:07:55;9.57;;;7.32;;
57828;SDS011;43657;52.698;6.314;2023-07-09T16:10:25;7.80;;;7.00;;
57828;SDS011;43657;52.698;6.314;2023-07-09T16:12:53;10.73;;;8.25;;
57828;SDS011;43657;52.698;6.314;2023-07-09T16:15:20;10.23;;;8.00;;
57828;SDS011;43657;52.698;6.314;2023-07-09T16:17:47;9.52;;;7.80;;
57828;SDS011;43657;52.698;6.314;2023-07-09T16:20:14;11.95;;;8.55;;
57828;SDS011;43657;52.698;6.314;2023-07-09T16:22:43;7.50;;;6.18;;
57828;SDS011;43657;52.698;6.314;2023-07-09T16:25:17;11.45;;;6.90;;
57828;SDS011;43657;52.698;6.314;2023-07-09T16:27:46;14.18;;;7.25;;
57828;SDS011;43657;52.698;6.314;2023-07-09T16:30:13;12.30;;;10.00;;
57828;SDS011;43657;52.698;6.314;2023-07-09T16:32:42;11.73;;;8.63;;
57828;SDS011;43657;52.698;6.314;2023-07-09T16:35:10;11.52;;;10.25;;
57828;SDS011;43657;52.698;6.314;2023-07-09T16:37:37;15.52;;;11.23;;
57828;SDS011;43657;52.698;6.314;2023-07-09T16:40:03;15.48;;;10.57;;
57828;SDS011;43657;52.698;6.314;2023-07-09T16:42:29;11.10;;;8.98;;
57828;SDS011;43657;52.698;6.314;2023-07-09T16:44:55;13.82;;;9.18;;
57828;SDS011;43657;52.698;6.314;2023-07-09T16:47:20;11.77;;;10.48;;
57828;SDS011;43657;52.698;6.314;2023-07-09T16:49:46;11.40;;;9.35;;
57828;SDS011;43657;52.698;6.314;2023-07-09T16:52:17;9.45;;;6.65;;
57828;SDS011;43657;52.698;6.314;2023-07-09T16:54:44;7.07;;;6.15;;
57828;SDS011;43657;52.698;6.314;2023-07-09T16:57:13;7.25;;;6.47;;
57828;SDS011;43657;52.698;6.314;2023-07-09T16:59:45;8.07;;;6.60;;
57828;SDS011;43657;52.698;6.314;2023-07-09T17:02:22;8.45;;;7.15;;
57828;SDS011;43657;52.698;6.314;2023-07-09T17:05:00;8.10;;;6.88;;
57828;SDS011;43657;52.698;6.314;2023-07-09T17:07:29;8.82;;;7.95;;
57828;SDS011;43657;52.698;6.314;2023-07-09T17:09:56;7.63;;;6.55;;
57828;SDS011;43657;52.698;6.314;2023-07-09T17:12:23;8.77;;;6.88;;
57828;SDS011;43657;52.698;6.314;2023-07-09T17:14:48;7.35;;;6.55;;
57828;SDS011;43657;52.698;6.314;2023-07-09T17:17:16;9.60;;;8.00;;
57828;SDS011;43657;52.698;6.314;2023-07-09T17:19:43;11.70;;;7.75;;
57828;SDS011;43657;52.698;6.314;2023-07-09T17:22:30;7.35;;;6.47;;
57828;SDS011;43657;52.698;6.314;2023-07-09T17:24:58;7.53;;;6.32;;
57828;SDS011;43657;52.698;6.314;2023-07-09T17:27:25;8.93;;;6.70;;
57828;SDS011;43657;52.698;6.314;2023-07-09T17:29:50;7.68;;;6.72;;
57828;SDS011;43657;52.698;6.314;2023-07-09T17:32:16;9.02;;;6.90;;
57828;SDS011;43657;52.698;6.314;2023-07-09T17:34:42;8.10;;;7.30;;
57828;SDS011;43657;52.698;6.314;2023-07-09T17:37:11;9.48;;;8.18;;
57828;SDS011;43657;52.698;6.314;2023-07-09T17:39:39;10.02;;;9.02;;
57828;SDS011;43657;52.698;6.314;2023-07-09T17:42:08;12.48;;;9.75;;
57828;SDS011;43657;52.698;6.314;2023-07-09T17:44:36;9.32;;;8.30;;
57828;SDS011;43657;52.698;6.314;2023-07-09T17:47:02;10.73;;;8.13;;
57828;SDS011;43657;52.698;6.314;2023-07-09T17:49:30;9.95;;;7.90;;
57828;SDS011;43657;52.698;6.314;2023-07-09T17:51:57;8.65;;;7.68;;
57828;SDS011;43657;52.698;6.314;2023-07-09T17:54:24;9.30;;;8.40;;
57828;SDS011;43657;52.698;6.314;2023-07-09T17:56:52;10.73;;;9.63;;
57828;SDS011;43657;52.698;6.314;2023-07-09T17:59:21;10.73;;;8.73;;
57828;SDS011;43657;52.698;6.314;2023-07-09T18:01:56;10.50;;;9.40;;
57828;SDS011;43657;52.698;6.314;2023-07-09T18:04:27;10.75;;;9.73;;